createdAt,value
2018-06-29T05:03:04.359Z,31.10
2018-06-29T05:08:07.699Z,31.43
2018-06-29T05:13:11.044Z,28.47
2018-06-29T05:18:39.746Z,29.83
2018-06-29T05:23:43.099Z,32.80
2018-06-29T05:28:46.443Z,30.23
2018-06-29T05:33:49.794Z,28.53
2018-06-29T05:38:53.138Z,27.73
2018-06-29T05:43:56.471Z,29.93
2018-06-29T05:48:59.888Z,25.20
2018-06-29T05:54:03.235Z,24.23
2018-06-29T05:59:22.010Z,24.40
2018-06-29T06:04:26.128Z,24.63
2018-06-29T06:09:30.227Z,22.67
2018-06-29T06:14:33.567Z,23.93
2018-06-29T06:20:07.503Z,23.80
2018-06-29T06:25:10.839Z,26.73
2018-06-29T06:36:02.236Z,23.23
2018-06-29T06:41:05.576Z,22.03
2018-06-29T06:46:08.907Z,26.07
2018-06-29T06:51:12.251Z,25.83
2018-06-29T06:56:15.594Z,23.33
2018-06-29T07:01:18.926Z,24.93
2018-06-29T07:06:23.250Z,25.80
2018-06-29T07:11:26.589Z,24.80
2018-06-29T07:16:29.934Z,24.23
2018-06-29T07:21:33.278Z,22.90
2018-06-29T07:26:36.608Z,23.67
2018-06-29T07:31:40.888Z,25.23
2018-06-29T07:36:44.986Z,22.93
2018-06-29T07:41:48.323Z,22.17
2018-06-29T07:46:52.428Z,21.93
2018-06-29T07:51:55.762Z,26.10
2018-06-29T07:56:59.091Z,22.87
2018-06-29T08:02:03.195Z,20.57
2018-06-29T08:07:06.532Z,22.20
2018-06-29T08:12:09.883Z,22.30
2018-06-29T08:17:13.215Z,22.60
2018-06-29T08:22:16.553Z,21.53
2018-06-29T08:27:20.664Z,22.30
2018-06-29T08:32:24.030Z,25.47
2018-06-29T08:37:27.352Z,25.37
2018-06-29T08:42:30.687Z,22.40
2018-06-29T08:47:34.022Z,24.50
2018-06-29T08:52:37.370Z,22.73
2018-06-29T08:57:40.782Z,22.87
2018-06-29T09:02:44.112Z,20.80
2018-06-29T09:07:47.450Z,22.77
2018-06-29T09:12:50.795Z,23.10
2018-06-29T09:17:54.130Z,22.27
2018-06-29T09:22:57.466Z,22.40
2018-06-29T09:28:00.792Z,22.80
2018-06-29T09:33:04.122Z,21.93
2018-06-29T09:38:07.464Z,23.77
2018-06-29T09:43:11.563Z,23.70
2018-06-29T09:48:14.903Z,19.40
2018-06-29T09:53:18.277Z,19.77
2018-06-29T09:58:21.716Z,19.27
2018-06-29T10:03:25.155Z,20.77
2018-06-29T10:08:29.259Z,16.60
2018-06-29T10:13:32.614Z,17.77
2018-06-29T10:18:36.059Z,20.40
2018-06-29T10:23:39.431Z,18.77
2018-06-29T10:28:43.542Z,23.27
2018-06-29T10:33:46.884Z,22.57
2018-06-29T10:38:50.274Z,16.47
2018-06-29T10:43:53.597Z,21.20
2018-06-29T10:48:57.798Z,21.33
2018-06-29T10:54:01.243Z,22.37
2018-06-29T10:59:05.378Z,21.43
2018-06-29T11:04:08.806Z,22.13
2018-06-29T11:09:12.140Z,23.63
2018-06-29T11:14:15.487Z,22.90
2018-06-29T11:19:18.826Z,24.20
2018-06-29T11:24:22.924Z,20.50
2018-06-29T11:29:26.273Z,21.63
2018-06-29T11:34:29.610Z,20.93
2018-06-29T11:39:32.954Z,23.77
2018-06-29T11:44:36.283Z,23.70
2018-06-29T11:49:39.627Z,19.97
2018-06-29T11:54:43.727Z,21.80
2018-06-29T11:59:47.091Z,19.10
2018-06-29T12:04:50.430Z,20.33
2018-06-29T12:09:53.780Z,16.77
2018-06-29T12:14:57.167Z,21.00
2018-06-29T12:20:00.463Z,16.10
2018-06-29T12:25:03.828Z,21.77
2018-06-29T12:30:07.963Z,16.17
2018-06-29T12:35:11.322Z,18.53
2018-06-29T12:40:14.766Z,16.63
2018-06-29T12:45:18.104Z,14.30
2018-06-29T12:50:22.207Z,16.03
2018-06-29T12:55:25.563Z,16.13
2018-06-29T13:00:28.916Z,15.17
2018-06-29T13:05:32.436Z,15.13
2018-06-29T13:10:36.395Z,15.97
2018-06-29T13:15:39.743Z,14.97
2018-06-29T13:20:43.096Z,16.97
2018-06-29T13:25:46.434Z,17.83
2018-06-29T13:30:49.812Z,15.73
2018-06-29T13:35:53.116Z,16.27
2018-06-29T13:40:56.448Z,17.00
2018-06-29T13:45:59.786Z,11.83
2018-06-29T13:51:03.895Z,18.17
2018-06-29T13:56:07.250Z,16.23
2018-06-29T14:01:10.588Z,11.90
2018-06-29T14:06:13.934Z,15.37
2018-06-29T14:11:17.289Z,11.17
2018-06-29T14:16:20.630Z,10.20
2018-06-29T14:21:23.960Z,9.03
2018-06-29T14:26:27.295Z,9.70
2018-06-29T14:31:30.631Z,11.27
2018-06-29T14:36:34.734Z,12.30
2018-06-29T14:41:38.082Z,10.83
2018-06-29T14:46:41.423Z,10.67
2018-06-29T14:51:44.768Z,10.87
2018-06-29T14:56:48.120Z,10.27
2018-06-29T15:01:52.228Z,9.67
2018-06-29T15:06:56.339Z,13.43
2018-06-29T15:11:59.682Z,10.17
2018-06-29T15:17:03.783Z,9.33
2018-06-29T15:22:07.117Z,8.80
2018-06-29T15:27:10.458Z,13.93
2018-06-29T15:32:13.792Z,12.93
2018-06-29T15:37:17.156Z,13.67
2018-06-29T15:42:20.506Z,10.73
2018-06-29T15:47:23.855Z,14.13
2018-06-29T15:52:27.307Z,12.63
2018-06-29T15:57:31.686Z,9.27
2018-06-29T16:02:35.202Z,8.63
2018-06-29T16:07:38.671Z,11.57
2018-06-29T16:12:42.792Z,9.10
2018-06-29T16:17:46.581Z,11.67
2018-06-29T16:22:50.311Z,10.83
2018-06-29T16:27:53.991Z,9.83
2018-06-29T16:32:58.599Z,8.80
2018-06-29T16:38:02.224Z,10.23
2018-06-29T16:43:07.118Z,12.30
2018-06-29T16:48:10.656Z,11.20
2018-06-29T16:53:14.993Z,11.17
2018-06-29T16:58:18.419Z,10.43
2018-06-29T17:03:21.718Z,10.83
2018-06-29T17:08:25.051Z,10.97
2018-06-29T17:13:28.403Z,11.07
2018-06-29T17:18:36.018Z,11.17
2018-06-29T17:23:40.902Z,10.60
2018-06-29T17:28:47.670Z,10.30
2018-06-29T17:33:51.884Z,10.40
2018-06-29T17:38:55.151Z,11.23
2018-06-29T17:43:58.523Z,10.03
2018-06-29T17:49:01.867Z,9.93
2018-06-29T17:54:06.743Z,9.30
2018-06-29T17:59:12.392Z,10.20
2018-06-29T18:04:16.778Z,10.37
2018-06-29T18:09:21.699Z,11.80
2018-06-29T18:14:27.483Z,10.77
2018-06-29T18:19:37.467Z,11.93
2018-06-29T18:24:40.811Z,10.63
2018-06-29T18:29:47.716Z,11.23
2018-06-29T18:34:51.015Z,13.50
2018-06-29T18:39:57.776Z,9.87
2018-06-29T18:45:03.833Z,12.57
2018-06-29T18:50:10.412Z,10.00
2018-06-29T18:55:15.019Z,10.70
2018-06-29T19:00:18.416Z,11.30
2018-06-29T19:05:21.828Z,12.10
2018-06-29T19:10:25.946Z,10.43
2018-06-29T19:15:29.286Z,10.20
2018-06-29T19:26:14.808Z,13.50
2018-06-29T19:31:18.190Z,11.40
2018-06-29T19:36:21.511Z,13.57
2018-06-29T19:41:24.847Z,11.60
2018-06-29T19:46:28.200Z,12.47
2018-06-29T19:51:31.548Z,11.63
2018-06-29T19:56:34.895Z,12.27
2018-06-29T20:01:39.023Z,9.13
2018-06-29T20:06:42.536Z,11.43
2018-06-29T20:11:46.662Z,9.53
2018-06-29T20:16:50.119Z,10.23
2018-06-29T20:21:53.910Z,13.17
2018-06-29T20:26:57.275Z,12.27
2018-06-29T20:32:01.085Z,11.90
2018-06-29T20:37:05.416Z,10.37
2018-06-29T20:42:08.785Z,11.37
2018-06-29T20:47:12.124Z,12.97
2018-06-29T20:52:16.230Z,12.90
2018-06-29T20:57:19.570Z,11.60
2018-06-29T21:02:23.684Z,12.10
2018-06-29T21:07:27.035Z,11.20
2018-06-29T21:12:30.429Z,12.60
2018-06-29T21:17:33.728Z,10.00
2018-06-29T21:22:37.843Z,11.03
2018-06-29T21:27:41.188Z,10.83
2018-06-29T21:32:45.282Z,11.50
2018-06-29T21:37:48.623Z,11.93
2018-06-29T21:42:52.716Z,12.87
2018-06-29T21:47:56.062Z,10.97
2018-06-29T21:53:00.171Z,11.33
2018-06-29T21:58:03.523Z,11.20
2018-06-29T22:03:06.870Z,11.93
2018-06-29T22:08:10.214Z,12.73
2018-06-29T22:13:13.572Z,10.37
2018-06-29T22:18:16.911Z,12.77
2018-06-29T22:23:20.245Z,11.37
2018-06-29T22:28:23.583Z,9.83
